createdAt,value
2023-05-02T00:02:00.704Z,0.40
2023-05-02T00:04:27.785Z,2.72
2023-05-02T00:06:54.703Z,0.50
2023-05-02T00:09:21.682Z,0.70
2023-05-02T00:11:48.457Z,2.55
2023-05-02T00:14:15.130Z,1.23
2023-05-02T00:16:41.875Z,0.73
2023-05-02T00:19:08.510Z,0.90
2023-05-02T00:21:35.249Z,0.70
2023-05-02T00:24:01.944Z,0.60
2023-05-02T00:26:29.047Z,0.82
2023-05-02T00:28:55.686Z,0.70
2023-05-02T00:31:22.335Z,1.27
2023-05-02T00:33:49.092Z,0.80
2023-05-02T00:36:16.883Z,1.10
2023-05-02T00:38:43.651Z,0.80
2023-05-02T00:41:10.852Z,0.90
2023-05-02T00:43:39.854Z,1.40
2023-05-02T00:46:08.038Z,0.98
2023-05-02T00:48:35.474Z,3.72
2023-05-02T00:51:09.151Z,0.90
2023-05-02T00:53:36.120Z,0.80
2023-05-02T00:56:03.534Z,1.30
2023-05-02T00:58:30.823Z,0.90
2023-05-02T01:01:31.519Z,1.75
2023-05-02T01:04:02.654Z,1.58
2023-05-02T01:06:41.812Z,1.25
2023-05-02T01:09:32.705Z,1.15
2023-05-02T01:12:05.346Z,2.22
2023-05-02T01:14:41.172Z,1.15
2023-05-02T01:17:11.640Z,0.90
2023-05-02T01:19:57.382Z,1.52
2023-05-02T01:22:28.052Z,1.73
2023-05-02T01:24:54.665Z,1.02
2023-05-02T01:27:52.124Z,1.60
2023-05-02T01:30:21.531Z,2.42
2023-05-02T01:32:51.020Z,2.63
2023-05-02T01:35:20.193Z,3.00
2023-05-02T01:37:49.023Z,1.67
2023-05-02T01:40:22.593Z,2.03
2023-05-02T01:42:52.255Z,2.30
2023-05-02T01:45:21.264Z,1.17
2023-05-02T01:47:49.256Z,1.45
2023-05-02T01:50:23.333Z,1.35
2023-05-02T01:52:53.244Z,1.52
2023-05-02T01:55:20.799Z,1.63
2023-05-02T01:57:50.788Z,1.70
2023-05-02T02:00:19.685Z,2.85
2023-05-02T02:02:49.748Z,1.88
2023-05-02T02:05:19.262Z,2.53
2023-05-02T02:07:46.407Z,2.30
2023-05-02T02:10:13.361Z,6.70
2023-05-02T02:12:42.884Z,1.30
2023-05-02T02:15:18.272Z,2.30
2023-05-02T02:17:59.158Z,3.47
2023-05-02T02:20:28.685Z,1.35
2023-05-02T02:22:57.849Z,2.33
2023-05-02T02:25:26.986Z,3.03
2023-05-02T02:27:54.666Z,3.75
2023-05-02T02:30:21.396Z,0.82
2023-05-02T02:32:48.156Z,2.65
2023-05-02T02:35:15.380Z,1.63
2023-05-02T02:37:59.422Z,1.00
2023-05-02T02:40:31.687Z,2.20
2023-05-02T02:43:01.623Z,2.50
2023-05-02T02:45:43.941Z,3.63
2023-05-02T02:48:35.785Z,1.40
2023-05-02T02:51:02.364Z,3.28
2023-05-02T02:53:51.130Z,2.88
2023-05-02T02:56:26.672Z,1.52
2023-05-02T02:59:00.541Z,2.53
2023-05-02T03:01:30.876Z,4.47
2023-05-02T03:03:58.155Z,3.22
2023-05-02T03:06:27.402Z,1.95
2023-05-02T03:08:54.138Z,5.15
2023-05-02T03:11:20.733Z,6.07
2023-05-02T03:13:47.759Z,1.70
2023-05-02T03:16:27.349Z,6.28
2023-05-02T03:18:54.091Z,2.88
2023-05-02T03:21:20.794Z,1.63
2023-05-02T03:23:47.429Z,1.40
2023-05-02T03:26:14.560Z,2.63
2023-05-02T03:28:41.214Z,3.08
2023-05-02T03:31:09.903Z,2.03
2023-05-02T03:33:36.651Z,3.90
2023-05-02T03:36:03.481Z,5.30
2023-05-02T03:38:30.817Z,2.67
2023-05-02T03:40:58.464Z,4.68
2023-05-02T03:43:25.284Z,3.85
2023-05-02T03:45:51.930Z,3.35
2023-05-02T03:48:18.760Z,4.55
2023-05-02T03:50:45.469Z,3.63
2023-05-02T03:53:12.126Z,3.25
2023-05-02T03:55:42.540Z,1.40
2023-05-02T03:58:10.815Z,3.47
2023-05-02T04:00:38.602Z,4.25
2023-05-02T04:03:05.690Z,5.03
2023-05-02T04:05:32.565Z,3.80
2023-05-02T04:07:59.164Z,3.40
2023-05-02T04:10:25.831Z,1.75
2023-05-02T04:12:52.457Z,2.50
2023-05-02T04:15:19.185Z,4.47
2023-05-02T04:17:46.790Z,7.15
2023-05-02T04:20:13.823Z,4.00
2023-05-02T04:22:41.195Z,1.60
2023-05-02T04:25:08.269Z,2.10
2023-05-02T04:27:35.187Z,1.95
2023-05-02T04:30:02.043Z,2.00
2023-05-02T04:32:29.249Z,1.30
2023-05-02T04:34:55.980Z,3.25
2023-05-02T04:37:22.744Z,1.70
2023-05-02T04:39:49.423Z,3.22
2023-05-02T04:42:16.132Z,5.30
2023-05-02T04:44:42.736Z,2.53
2023-05-02T04:47:09.415Z,4.55
2023-05-02T04:49:36.587Z,2.22
2023-05-02T04:52:03.218Z,1.38
2023-05-02T04:54:30.206Z,4.55
2023-05-02T04:56:57.302Z,2.55
2023-05-02T04:59:23.885Z,1.70
2023-05-02T05:01:50.864Z,6.15
2023-05-02T05:04:20.087Z,2.65
2023-05-02T05:06:48.413Z,3.15
2023-05-02T05:09:15.909Z,9.13
2023-05-02T05:11:46.323Z,1.75
2023-05-02T05:14:13.094Z,1.60
2023-05-02T05:16:40.271Z,1.60
2023-05-02T05:19:07.037Z,1.90
2023-05-02T05:21:34.150Z,3.22
2023-05-02T05:24:00.895Z,2.85
2023-05-02T05:26:27.856Z,2.15
2023-05-02T05:28:54.439Z,1.70
2023-05-02T05:31:21.178Z,2.08
2023-05-02T05:33:47.871Z,4.90
2023-05-02T05:36:15.117Z,7.63
2023-05-02T05:38:42.004Z,1.77
2023-05-02T05:41:09.056Z,2.47
2023-05-02T05:43:37.751Z,2.47
2023-05-02T05:46:04.823Z,2.30
2023-05-02T05:48:31.557Z,3.83
2023-05-02T05:50:58.242Z,3.47
2023-05-02T05:53:24.944Z,1.75
2023-05-02T05:55:51.561Z,1.88
2023-05-02T05:58:18.345Z,1.85
2023-05-02T06:00:44.961Z,1.45
2023-05-02T06:03:12.366Z,3.47
2023-05-02T06:05:39.029Z,1.73
2023-05-02T06:08:05.658Z,1.23
2023-05-02T06:10:32.635Z,2.13
2023-05-02T06:12:59.452Z,1.30
2023-05-02T06:15:26.210Z,3.13
2023-05-02T06:17:52.948Z,1.13
2023-05-02T06:20:19.612Z,2.10
2023-05-02T06:22:46.256Z,1.35
2023-05-02T06:25:13.040Z,5.05
2023-05-02T06:27:39.768Z,3.35
2023-05-02T06:30:07.192Z,2.97
2023-05-02T06:32:33.928Z,1.20
2023-05-02T06:35:01.344Z,0.80
2023-05-02T06:37:27.969Z,1.95
2023-05-02T06:39:54.609Z,1.90
2023-05-02T06:42:21.244Z,2.25
2023-05-02T06:44:47.917Z,1.35
2023-05-02T06:47:14.982Z,1.73
2023-05-02T06:49:41.921Z,1.45
2023-05-02T06:52:08.691Z,0.82
2023-05-02T06:54:35.661Z,2.42
2023-05-02T06:57:02.713Z,4.03
2023-05-02T06:59:29.692Z,0.77
2023-05-02T07:01:57.362Z,1.27
2023-05-02T07:04:24.016Z,0.70
2023-05-02T07:06:51.153Z,0.80
2023-05-02T07:09:17.857Z,1.25
2023-05-02T07:11:44.452Z,0.88
2023-05-02T07:14:11.397Z,0.77
2023-05-02T07:16:38.118Z,0.98
2023-05-02T07:19:07.086Z,1.10
2023-05-02T07:21:33.784Z,1.00
2023-05-02T07:24:01.296Z,1.13
2023-05-02T07:26:28.528Z,3.40
2023-05-02T07:28:55.151Z,2.38
2023-05-02T07:31:22.077Z,1.83
2023-05-02T07:33:48.747Z,1.65
2023-05-02T07:36:15.804Z,1.60
2023-05-02T07:38:42.391Z,0.60
2023-05-02T07:41:09.318Z,1.02
2023-05-02T07:43:36.090Z,0.57
2023-05-02T07:46:06.816Z,1.17
2023-05-02T07:48:34.135Z,1.13
2023-05-02T07:51:08.112Z,4.13
2023-05-02T07:53:34.782Z,1.35
2023-05-02T07:56:03.394Z,0.50
2023-05-02T07:58:30.118Z,1.98
2023-05-02T08:00:57.737Z,1.80
2023-05-02T08:03:25.705Z,1.23
2023-05-02T08:05:52.513Z,0.70
2023-05-02T08:08:19.252Z,0.50
2023-05-02T08:10:46.294Z,0.60
2023-05-02T08:13:13.295Z,1.10
2023-05-02T08:15:39.951Z,0.50
2023-05-02T08:18:07.474Z,0.93
2023-05-02T08:20:34.183Z,1.23
2023-05-02T08:23:00.873Z,1.23
2023-05-02T08:25:27.620Z,0.60
2023-05-02T08:27:54.279Z,2.83
2023-05-02T08:30:20.897Z,2.15
2023-05-02T08:32:47.618Z,0.50
2023-05-02T08:35:14.419Z,0.52
2023-05-02T08:37:41.252Z,1.08
2023-05-02T08:40:12.272Z,0.68
2023-05-02T08:42:42.769Z,1.33
2023-05-02T08:45:14.054Z,0.80
2023-05-02T08:47:42.576Z,1.40
2023-05-02T08:50:10.915Z,1.00
2023-05-02T08:52:38.583Z,2.30
2023-05-02T08:55:07.536Z,1.40
2023-05-02T08:57:34.405Z,0.98
2023-05-02T09:00:01.355Z,0.43
2023-05-02T09:02:31.329Z,0.60
2023-05-02T09:05:06.570Z,0.45
2023-05-02T09:07:47.806Z,1.55
2023-05-02T09:10:15.948Z,0.68
2023-05-02T09:12:43.147Z,0.63
2023-05-02T09:15:14.720Z,0.70
2023-05-02T09:17:46.331Z,0.88
2023-05-02T09:20:14.738Z,0.60
2023-05-02T09:22:53.452Z,1.25
2023-05-02T09:25:21.275Z,1.92
2023-05-02T09:27:55.888Z,1.95
2023-05-02T09:32:51.990Z,0.70
2023-05-02T09:35:23.834Z,1.35
2023-05-02T09:37:54.894Z,0.88
2023-05-02T09:40:22.109Z,2.55
2023-05-02T09:42:49.033Z,0.57
2023-05-02T09:45:23.940Z,1.38
2023-05-02T09:47:51.556Z,0.60
2023-05-02T09:50:38.730Z,0.82
2023-05-02T09:53:07.340Z,0.70
2023-05-02T09:55:34.470Z,0.70
2023-05-02T09:58:01.544Z,0.60
2023-05-02T10:00:44.861Z,0.73
2023-05-02T10:03:17.943Z,1.27
2023-05-02T10:05:47.904Z,1.30
2023-05-02T10:08:18.655Z,1.20
2023-05-02T10:11:07.799Z,0.40
2023-05-02T10:13:37.715Z,0.40
2023-05-02T10:16:06.912Z,0.50
2023-05-02T10:19:12.863Z,0.40
2023-05-02T10:21:43.185Z,0.85
2023-05-02T10:24:10.429Z,0.57
2023-05-02T10:26:37.454Z,0.68
2023-05-02T10:29:04.340Z,0.50
2023-05-02T10:31:35.150Z,0.65
2023-05-02T10:34:03.381Z,0.43
2023-05-02T10:36:33.506Z,0.85
2023-05-02T10:39:01.452Z,0.77
2023-05-02T10:41:31.509Z,0.32
2023-05-02T10:43:58.838Z,1.60
2023-05-02T10:46:41.841Z,1.48
2023-05-02T10:49:13.609Z,0.70
2023-05-02T10:51:42.093Z,0.70
2023-05-02T10:54:18.245Z,0.45
2023-05-02T10:57:09.731Z,0.57
2023-05-02T10:59:40.854Z,0.60
2023-05-02T11:02:31.260Z,1.27
2023-05-02T11:05:04.573Z,0.65
2023-05-02T11:07:33.775Z,1.93
2023-05-02T11:10:18.463Z,0.38
2023-05-02T11:12:47.914Z,0.43
2023-05-02T11:15:15.835Z,0.52
2023-05-02T11:18:01.904Z,0.30
2023-05-02T11:20:29.338Z,0.40
2023-05-02T11:22:58.950Z,0.30
2023-05-02T11:25:33.835Z,1.02
2023-05-02T11:28:00.904Z,1.10
2023-05-02T11:30:45.399Z,0.75
2023-05-02T11:33:15.889Z,0.47
2023-05-02T11:35:44.414Z,0.45
2023-05-02T11:38:13.721Z,1.92
2023-05-02T11:40:40.755Z,0.75
2023-05-02T11:43:16.641Z,0.65
2023-05-02T11:45:44.167Z,0.32
2023-05-02T11:48:12.966Z,2.05
2023-05-02T11:50:48.754Z,2.22
2023-05-02T11:53:22.633Z,0.55
2023-05-02T11:55:52.087Z,0.40
2023-05-02T11:58:21.560Z,0.52
2023-05-02T12:00:49.295Z,0.85
2023-05-02T12:03:22.872Z,0.30
2023-05-02T12:05:50.510Z,0.37
2023-05-02T12:08:27.612Z,0.88
2023-05-02T12:10:56.836Z,0.40
2023-05-02T12:13:25.606Z,2.63
2023-05-02T12:15:54.164Z,0.95
2023-05-02T12:18:27.172Z,0.30
2023-05-02T12:20:56.063Z,0.50
2023-05-02T12:23:26.488Z,0.63
2023-05-02T12:25:53.324Z,0.57
2023-05-02T12:28:20.901Z,0.63
2023-05-02T12:30:49.701Z,0.30
2023-05-02T12:33:18.327Z,0.40
2023-05-02T12:35:49.244Z,0.30
2023-05-02T12:38:19.008Z,0.63
2023-05-02T12:40:54.557Z,0.47
2023-05-02T12:43:22.148Z,0.30
2023-05-02T12:45:50.011Z,0.40
2023-05-02T12:48:23.009Z,1.27
2023-05-02T12:50:50.713Z,0.40
2023-05-02T12:53:17.333Z,1.17
2023-05-02T12:55:44.430Z,1.33
2023-05-02T12:58:14.959Z,0.20
2023-05-02T13:00:44.217Z,0.20
2023-05-02T13:03:12.483Z,0.47
2023-05-02T13:05:39.409Z,0.77
2023-05-02T13:08:06.623Z,0.30
2023-05-02T13:10:33.417Z,0.47
2023-05-02T13:13:00.407Z,1.10
2023-05-02T13:15:27.314Z,0.47
2023-05-02T13:17:54.098Z,0.30
2023-05-02T13:20:20.964Z,0.50
2023-05-02T13:22:48.827Z,0.20
2023-05-02T13:25:16.153Z,0.30
2023-05-02T13:27:42.885Z,0.20
2023-05-02T13:30:10.305Z,0.40
2023-05-02T13:32:37.511Z,0.52
2023-05-02T13:35:05.611Z,0.30
2023-05-02T13:37:32.535Z,0.30
2023-05-02T13:39:59.290Z,0.30
2023-05-02T13:42:26.056Z,0.55
2023-05-02T13:44:52.695Z,5.95
2023-05-02T13:47:20.403Z,0.52
2023-05-02T13:49:47.056Z,1.15
2023-05-02T13:52:14.863Z,0.20
2023-05-02T13:54:41.521Z,0.20
2023-05-02T13:57:08.158Z,0.40
2023-05-02T13:59:34.828Z,0.30
2023-05-02T14:02:01.622Z,0.32
2023-05-02T14:04:28.558Z,0.90
2023-05-02T14:06:55.316Z,0.28
2023-05-02T14:09:22.209Z,0.20
2023-05-02T14:11:49.185Z,0.63
2023-05-02T14:14:16.191Z,0.88
2023-05-02T14:16:42.799Z,0.30
2023-05-02T14:19:09.437Z,0.47
2023-05-02T14:21:38.539Z,0.22
2023-05-02T14:24:06.549Z,4.30
2023-05-02T14:26:33.548Z,0.38
2023-05-02T14:29:01.901Z,0.45
2023-05-02T14:31:29.569Z,1.45
2023-05-02T14:33:57.607Z,0.20
2023-05-02T14:36:24.186Z,0.75
2023-05-02T14:38:50.958Z,0.43
2023-05-02T14:41:18.500Z,0.20
2023-05-02T14:43:46.229Z,0.30
2023-05-02T14:46:12.856Z,1.65
2023-05-02T14:48:40.468Z,0.15
2023-05-02T14:51:07.329Z,0.20
2023-05-02T14:53:35.062Z,0.63
2023-05-02T14:56:01.731Z,0.40
2023-05-02T14:58:28.597Z,0.30
2023-05-02T15:00:55.317Z,0.30
2023-05-02T15:03:22.155Z,0.30
2023-05-02T15:05:48.933Z,0.20
2023-05-02T15:08:17.025Z,0.30
2023-05-02T15:10:43.612Z,0.30
2023-05-02T15:13:10.708Z,0.28
2023-05-02T15:15:37.501Z,0.38
2023-05-02T15:18:04.615Z,0.17
2023-05-02T15:20:32.484Z,0.20
2023-05-02T15:23:03.291Z,0.65
2023-05-02T15:25:30.755Z,0.20
2023-05-02T15:27:57.398Z,1.83
2023-05-02T15:30:24.340Z,0.20
2023-05-02T15:32:51.067Z,1.00
2023-05-02T15:35:18.839Z,0.57
2023-05-02T15:37:45.734Z,0.15
2023-05-02T15:40:12.783Z,0.20
2023-05-02T15:42:40.112Z,0.20
2023-05-02T15:45:07.266Z,1.23
2023-05-02T15:47:33.969Z,0.25
2023-05-02T15:50:01.169Z,0.38
2023-05-02T15:52:27.994Z,0.30
2023-05-02T15:54:56.117Z,2.58
2023-05-02T15:57:24.294Z,0.20
2023-05-02T15:59:51.975Z,1.25
2023-05-02T16:02:19.209Z,0.22
2023-05-02T16:04:46.540Z,0.30
2023-05-02T16:07:13.281Z,0.22
2023-05-02T16:09:40.180Z,0.38
2023-05-02T16:12:08.738Z,0.20
2023-05-02T16:14:35.598Z,0.20
2023-05-02T16:17:03.321Z,0.45
2023-05-02T16:19:30.703Z,0.80
2023-05-02T16:21:57.398Z,0.40
2023-05-02T16:24:24.262Z,0.38
2023-05-02T16:26:50.944Z,0.65
2023-05-02T16:29:18.582Z,0.50
2023-05-02T16:31:45.224Z,0.32
2023-05-02T16:34:11.994Z,0.30
2023-05-02T16:36:38.637Z,0.40
2023-05-02T16:39:05.320Z,0.30
2023-05-02T16:41:32.017Z,0.25
2023-05-02T16:43:59.758Z,0.80
2023-05-02T16:46:26.866Z,3.42
2023-05-02T16:48:53.618Z,1.45
2023-05-02T16:51:20.241Z,0.20
2023-05-02T16:53:46.969Z,0.20
2023-05-02T16:56:13.575Z,0.55
2023-05-02T16:58:41.228Z,0.40
2023-05-02T17:01:08.521Z,0.35
2023-05-02T17:03:35.650Z,0.20
2023-05-02T17:06:02.957Z,0.30
2023-05-02T17:08:30.692Z,1.02
2023-05-02T17:10:57.523Z,0.38
2023-05-02T17:13:24.243Z,0.22
2023-05-02T17:15:53.898Z,0.30
2023-05-02T17:18:20.719Z,0.63
2023-05-02T17:20:47.432Z,0.30
2023-05-02T17:23:14.713Z,0.85
2023-05-02T17:25:41.788Z,0.30
2023-05-02T17:28:08.564Z,0.30
2023-05-02T17:30:35.644Z,0.35
2023-05-02T17:33:02.801Z,0.20
2023-05-02T17:35:29.682Z,0.20
2023-05-02T17:37:56.381Z,0.60
2023-05-02T17:40:23.225Z,0.20
2023-05-02T17:42:49.847Z,0.30
2023-05-02T17:45:16.810Z,0.20
2023-05-02T17:47:44.734Z,0.40
2023-05-02T17:50:11.727Z,0.68
2023-05-02T17:52:38.940Z,0.60
2023-05-02T17:55:06.777Z,0.30
2023-05-02T17:57:33.430Z,0.70
2023-05-02T18:00:00.490Z,0.30
2023-05-02T18:02:27.672Z,0.93
2023-05-02T18:04:54.884Z,0.20
2023-05-02T18:07:24.613Z,0.35
2023-05-02T18:09:54.033Z,0.38
2023-05-02T18:12:21.788Z,0.22
2023-05-02T18:14:49.272Z,0.30
2023-05-02T18:17:20.291Z,1.33
2023-05-02T18:19:49.331Z,0.88
2023-05-02T18:22:19.857Z,0.30
2023-05-02T18:24:48.038Z,0.35
2023-05-02T18:27:14.950Z,0.30
2023-05-02T18:29:41.605Z,0.30
2023-05-02T18:32:08.808Z,0.30
2023-05-02T18:34:37.866Z,0.35
2023-05-02T18:37:06.757Z,0.30
2023-05-02T18:39:34.267Z,0.30
2023-05-02T18:42:03.139Z,0.47
2023-05-02T18:44:31.094Z,0.40
2023-05-02T18:46:57.995Z,0.28
2023-05-02T18:49:26.215Z,0.20
2023-05-02T18:51:57.138Z,0.50
2023-05-02T18:54:24.392Z,0.30
2023-05-02T18:56:51.026Z,0.30
2023-05-02T18:59:19.131Z,0.55
2023-05-02T19:01:47.547Z,1.08
2023-05-02T19:04:14.696Z,0.60
2023-05-02T19:06:42.013Z,0.60
2023-05-02T19:09:09.866Z,0.82
2023-05-02T19:11:36.752Z,0.63
2023-05-02T19:14:04.059Z,0.73
2023-05-02T19:16:31.451Z,0.63
2023-05-02T19:18:58.297Z,0.93
2023-05-02T19:21:24.976Z,0.40
2023-05-02T19:23:52.753Z,0.50
2023-05-02T19:26:19.616Z,0.40
2023-05-02T19:28:46.365Z,0.98
2023-05-02T19:31:16.138Z,0.70
2023-05-02T19:33:52.363Z,2.88
2023-05-02T19:36:20.244Z,2.95
2023-05-02T19:38:51.989Z,1.90
2023-05-02T19:41:18.754Z,2.20
2023-05-02T19:43:45.731Z,1.45
2023-05-02T19:46:14.346Z,2.83
2023-05-02T19:48:41.065Z,0.80
2023-05-02T19:51:07.992Z,0.82
2023-05-02T19:53:37.415Z,5.07
2023-05-02T19:56:05.186Z,1.05
2023-05-02T19:58:31.989Z,1.73
2023-05-02T20:00:58.764Z,2.40
2023-05-02T20:03:26.016Z,2.10
2023-05-02T20:05:54.196Z,5.18
2023-05-02T20:08:23.368Z,3.03
2023-05-02T20:10:50.197Z,1.40
2023-05-02T20:13:16.893Z,2.58
2023-05-02T20:15:43.830Z,4.38
2023-05-02T20:18:10.474Z,1.10
2023-05-02T20:20:37.138Z,1.38
2023-05-02T20:23:03.720Z,2.95
2023-05-02T20:25:30.466Z,1.10
2023-05-02T20:27:57.254Z,1.65
2023-05-02T20:30:25.293Z,2.45
2023-05-02T20:32:52.304Z,0.55
2023-05-02T20:35:19.324Z,0.60
2023-05-02T20:37:47.917Z,0.80
2023-05-02T20:40:14.686Z,0.60
2023-05-02T20:42:42.395Z,2.63
2023-05-02T20:45:13.144Z,0.77
2023-05-02T20:47:39.843Z,0.50
2023-05-02T20:50:09.367Z,0.60
2023-05-02T20:52:37.788Z,0.40
2023-05-02T20:55:04.869Z,0.50
2023-05-02T20:57:31.516Z,0.70
2023-05-02T21:00:01.092Z,0.55
2023-05-02T21:02:28.211Z,0.43
2023-05-02T21:04:55.749Z,2.90
2023-05-02T21:07:22.407Z,15.18
2023-05-02T21:09:49.764Z,30.25
2023-05-02T21:12:16.457Z,19.75
2023-05-02T21:14:44.137Z,21.70
2023-05-02T21:17:10.823Z,9.68
2023-05-02T21:19:38.933Z,11.82
2023-05-02T21:22:05.556Z,35.83
2023-05-02T21:24:33.360Z,9.50
2023-05-02T21:27:00.034Z,6.85
2023-05-02T21:29:26.673Z,4.75
2023-05-02T21:31:54.810Z,1.92
2023-05-02T21:34:21.708Z,4.05
2023-05-02T21:36:48.308Z,2.35
2023-05-02T21:39:16.354Z,5.45
2023-05-02T21:41:43.042Z,3.53
2023-05-02T21:44:11.361Z,3.72
2023-05-02T21:46:38.017Z,3.28
2023-05-02T21:49:04.629Z,2.10
2023-05-02T21:51:32.606Z,2.05
2023-05-02T21:54:00.142Z,2.20
2023-05-02T21:56:27.960Z,1.20
2023-05-02T21:58:54.571Z,0.70
2023-05-02T22:01:21.296Z,0.77
2023-05-02T22:03:48.361Z,0.82
2023-05-02T22:06:15.193Z,1.27
2023-05-02T22:08:41.840Z,0.70
2023-05-02T22:11:10.269Z,1.25
2023-05-02T22:13:37.265Z,1.10
2023-05-02T22:16:05.277Z,0.65
2023-05-02T22:18:31.901Z,0.95
2023-05-02T22:20:58.661Z,1.08
2023-05-02T22:23:26.527Z,1.50
2023-05-02T22:25:53.166Z,1.55
2023-05-02T22:28:19.826Z,0.52
2023-05-02T22:30:46.422Z,0.80
2023-05-02T22:33:14.147Z,0.80
2023-05-02T22:35:41.099Z,0.70
2023-05-02T22:38:10.990Z,0.65
2023-05-02T22:40:38.761Z,1.02
2023-05-02T22:43:05.389Z,0.93
2023-05-02T22:45:33.143Z,0.82
2023-05-02T22:48:01.039Z,0.70
2023-05-02T22:50:28.358Z,1.42
2023-05-02T22:52:58.721Z,1.25
2023-05-02T22:55:26.025Z,1.73
2023-05-02T22:57:52.752Z,0.85
2023-05-02T23:00:19.523Z,2.08
2023-05-02T23:02:46.633Z,1.38
2023-05-02T23:05:14.342Z,0.50
2023-05-02T23:07:41.050Z,1.00
2023-05-02T23:10:08.580Z,1.08
2023-05-02T23:12:35.174Z,0.40
2023-05-02T23:15:01.890Z,0.50
2023-05-02T23:17:28.663Z,0.63
2023-05-02T23:19:55.288Z,0.65
2023-05-02T23:22:21.909Z,0.95
2023-05-02T23:24:49.681Z,1.13
2023-05-02T23:27:16.380Z,1.08
2023-05-02T23:29:43.011Z,1.00
2023-05-02T23:32:09.753Z,0.57
2023-05-02T23:34:36.749Z,0.70
2023-05-02T23:37:06.234Z,1.08
2023-05-02T23:39:33.476Z,0.50
2023-05-02T23:42:01.845Z,1.05
2023-05-02T23:44:28.434Z,0.47
2023-05-02T23:46:55.033Z,1.13
2023-05-02T23:49:21.871Z,0.57
2023-05-02T23:51:48.465Z,0.85
2023-05-02T23:54:16.992Z,0.88
2023-05-02T23:56:43.874Z,2.13
2023-05-02T23:59:11.323Z,3.08
